Time;durP1;ratioP1;P1;durP2;ratioP2;P2;SDS_P1;SDS_P2;PMS_P1;PMS_P2;Temp;Humidity;BMP_temperature;BMP_pressure;BME280_temperature;BME280_humidity;BME280_pressure;Samples;Min_cycle;Max_cycle;Signal;HPM_P1;HPM_P2
2021/03/12 00:01:25;;;;;;;13.55;11.00;;;;;;;6.32;67.52;97622.91;123798;1102;65017;-79
2021/03/12 00:03:51;;;;;;;17.47;11.97;;;;;;;6.30;67.93;97630.11;123856;1102;64881;-78
2021/03/12 00:06:18;;;;;;;15.53;11.83;;;;;;;6.28;67.62;97634.66;123516;1102;64982;-79
2021/03/12 00:08:47;;;;;;;15.90;11.73;;;;;;;6.28;67.57;97650.53;123778;1102;65061;-79
2021/03/12 00:11:14;;;;;;;13.80;12.23;;;;;;;6.27;67.58;97661.24;123849;1102;65317;-80
2021/03/12 00:13:41;;;;;;;14.13;11.53;;;;;;;6.26;67.90;97659.53;123818;1102;64910;-80
2021/03/12 00:16:08;;;;;;;16.75;12.25;;;;;;;6.26;67.85;97672.76;123801;1101;64898;-79
2021/03/12 00:18:43;;;;;;;18.13;13.30;;;;;;;6.25;68.13;97679.86;123455;1102;64933;-79
2021/03/12 00:21:11;;;;;;;14.23;11.70;;;;;;;6.25;68.14;97677.21;123766;1102;64989;-78
2021/03/12 00:23:39;;;;;;;14.87;11.63;;;;;;;6.28;68.43;97686.73;123878;1102;64831;-80
2021/03/12 00:26:06;;;;;;;16.03;12.83;;;;;;;6.28;68.23;97689.38;123781;1101;64847;-80
2021/03/12 00:28:33;;;;;;;12.87;10.13;;;;;;;6.27;68.52;97690.34;123801;1102;64879;-78
2021/03/12 00:31:00;;;;;;;12.87;10.63;;;;;;;6.25;69.24;97693.08;123445;1102;64942;-78
2021/03/12 00:33:28;;;;;;;14.77;11.13;;;;;;;6.21;69.61;97698.69;123414;1102;65046;-79
2021/03/12 00:35:55;;;;;;;12.43;10.23;;;;;;;6.17;69.67;97681.36;123856;1102;65036;-78
2021/03/12 00:38:22;;;;;;;14.00;11.25;;;;;;;6.11;70.05;97691.41;123383;1102;65024;-79
2021/03/12 00:40:55;;;;;;;14.57;11.53;;;;;;;6.04;70.79;97694.59;123740;1102;64907;-79
2021/03/12 00:43:21;;;;;;;13.65;10.85;;;;;;;5.97;70.53;97698.59;123762;1102;64882;-78
2021/03/12 00:46:01;;;;;;;13.53;11.30;;;;;;;5.90;70.78;97696.36;123353;1102;64883;-79
2021/03/12 00:48:27;;;;;;;11.57;10.33;;;;;;;5.86;71.37;97692.22;123813;1102;64777;-78
2021/03/12 00:50:54;;;;;;;13.00;10.57;;;;;;;5.81;71.54;97690.84;123780;1102;64927;-79
2021/03/12 00:53:22;;;;;;;11.27;10.10;;;;;;;5.73;72.08;97692.20;123809;1102;64831;-79
2021/03/12 00:55:49;;;;;;;13.30;11.90;;;;;;;5.67;72.00;97700.56;123810;1102;64926;-79
2021/03/12 00:58:16;;;;;;;11.37;8.53;;;;;;;5.61;72.89;97711.56;123434;1102;65052;-79
2021/03/12 01:00:43;;;;;;;11.90;10.07;;;;;;;5.57;72.49;97706.58;123816;1102;64944;-79
2021/03/12 01:03:11;;;;;;;13.03;10.77;;;;;;;5.54;72.92;97704.14;123384;1102;64988;-79
2021/03/12 01:05:39;;;;;;;13.47;11.63;;;;;;;5.52;73.03;97706.03;123770;1102;64831;-79
2021/03/12 01:08:07;;;;;;;13.07;10.50;;;;;;;5.46;72.81;97705.50;123421;1102;64901;-80
2021/03/12 01:10:34;;;;;;;13.43;11.17;;;;;;;5.41;73.13;97702.31;123774;1102;64991;-81
2021/03/12 01:13:02;;;;;;;13.03;11.63;;;;;;;5.36;73.32;97698.29;123765;1102;64904;-80
2021/03/12 01:15:28;;;;;;;12.37;11.03;;;;;;;5.31;73.71;97703.87;123381;1104;64926;-78
2021/03/12 01:17:56;;;;;;;15.70;12.67;;;;;;;5.26;74.41;97709.45;123739;1102;64902;-78
2021/03/12 01:20:29;;;;;;;13.07;11.20;;;;;;;5.21;74.02;97708.94;123761;1102;64882;-78
2021/03/12 01:22:57;;;;;;;12.93;10.97;;;;;;;5.20;74.96;97707.22;123797;1102;65410;-78
2021/03/12 01:25:27;;;;;;;13.83;11.97;;;;;;;5.18;74.79;97706.47;123419;1101;64878;-78
2021/03/12 01:27:53;;;;;;;13.00;11.60;;;;;;;5.17;75.09;97696.86;123841;1101;64991;-78
2021/03/12 01:30:30;;;;;;;12.43;11.13;;;;;;;5.14;74.98;97688.31;123788;1102;64895;-79
2021/03/12 01:32:57;;;;;;;13.47;11.60;;;;;;;5.15;76.19;97679.42;123775;1102;64878;-79
2021/03/12 01:35:23;;;;;;;11.07;9.87;;;;;;;5.15;75.66;97684.70;123433;1102;64991;-79
2021/03/12 01:37:49;;;;;;;11.63;10.45;;;;;;;5.14;76.42;97686.51;123815;1102;64909;-78
2021/03/12 01:40:18;;;;;;;15.13;10.70;;;;;;;5.14;76.42;97683.03;123792;1102;65010;-79
2021/03/12 01:42:45;;;;;;;13.63;12.07;;;;;;;5.11;76.67;97667.36;123863;1101;65289;-79
2021/03/12 01:45:17;;;;;;;13.40;11.97;;;;;;;5.09;77.42;97671.92;123441;1102;65209;-79
2021/03/12 01:47:43;;;;;;;15.75;12.50;;;;;;;5.06;77.28;97680.89;123431;1102;64870;-82
2021/03/12 01:50:10;;;;;;;13.07;11.23;;;;;;;5.04;77.14;97659.85;123436;1102;64914;-79
2021/03/12 01:52:36;;;;;;;11.53;10.33;;;;;;;5.04;77.95;97673.05;123806;1102;64943;-79
2021/03/12 01:55:05;;;;;;;14.53;12.17;;;;;;;5.02;77.07;97687.30;123809;1102;64924;-79
2021/03/12 01:57:33;;;;;;;14.07;12.27;;;;;;;4.99;77.53;97672.51;123802;1102;64883;-79
2021/03/12 02:00:00;;;;;;;14.27;11.37;;;;;;;4.95;77.11;97673.67;123803;1102;64982;-79
2021/03/12 02:02:26;;;;;;;11.37;9.50;;;;;;;4.91;77.80;97666.89;123810;1102;65042;-79
2021/03/12 02:04:53;;;;;;;12.10;9.97;;;;;;;4.89;77.26;97674.05;123811;1102;64885;-79
2021/03/12 02:07:19;;;;;;;15.37;10.00;;;;;;;4.88;77.60;97672.38;123811;1102;64886;-78
2021/03/12 02:09:46;;;;;;;11.83;10.10;;;;;;;4.88;77.35;97677.65;123841;1102;64978;-79
2021/03/12 02:12:49;;;;;;;10.00;9.00;;;;;;;4.85;77.48;97691.05;123401;1102;64998;-79
2021/03/12 02:15:24;;;;;;;10.05;8.95;;;;;;;4.83;77.37;97679.73;123683;1101;64969;-79
2021/03/12 02:17:59;;;;;;;10.00;8.93;;;;;;;4.82;77.25;97675.42;123740;1102;64883;-80
2021/03/12 02:20:38;;;;;;;10.60;9.03;;;;;;;4.82;77.04;97678.06;123426;1102;64937;-79
2021/03/12 02:23:18;;;;;;;12.55;10.00;;;;;;;4.81;77.58;97679.83;123742;1102;64856;-79
2021/03/12 02:25:58;;;;;;;12.00;10.27;;;;;;;4.78;77.27;97664.19;123782;1102;64875;-80
2021/03/12 02:28:27;;;;;;;12.13;10.70;;;;;;;4.74;77.28;97669.77;123790;1102;64988;-79
2021/03/12 02:30:57;;;;;;;15.27;12.20;;;;;;;4.71;77.01;97659.41;123781;1101;64904;-80
2021/03/12 02:33:24;;;;;;;;;;;;;;;4.70;77.42;97655.09;123483;1102;65083;-79
2021/03/12 02:35:55;;;;;;;13.10;11.27;;;;;;;4.69;77.29;97656.89;123406;1102;64944;-78
2021/03/12 02:38:27;;;;;;;13.27;11.57;;;;;;;4.70;77.53;97652.45;123437;1102;65046;-79
2021/03/12 02:40:54;;;;;;;15.30;13.20;;;;;;;4.70;77.36;97649.81;123721;1101;64982;-79
2021/03/12 02:43:21;;;;;;;14.87;12.87;;;;;;;4.67;77.07;97644.73;123511;1102;64884;-79
2021/03/12 02:45:49;;;;;;;13.70;12.23;;;;;;;4.65;77.31;97651.90;123755;1102;64893;-79
2021/03/12 02:48:18;;;;;;;13.70;12.30;;;;;;;4.64;77.01;97645.78;123816;1102;64962;-79
2021/03/12 02:50:45;;;;;;;12.85;11.15;;;;;;;4.63;77.61;97641.43;123799;1100;64991;-79
2021/03/12 02:53:12;;;;;;;11.60;10.27;;;;;;;4.64;77.52;97651.06;123810;1102;64986;-79
2021/03/12 02:55:40;;;;;;;12.15;10.35;;;;;;;4.62;77.24;97658.22;123468;1102;64908;-78
2021/03/12 02:58:07;;;;;;;12.73;10.90;;;;;;;4.62;77.47;97655.58;123758;1102;64981;-79
2021/03/12 03:00:34;;;;;;;13.23;11.90;;;;;;;4.61;77.59;97656.53;123744;1102;65014;-79
2021/03/12 03:03:05;;;;;;;13.43;11.43;;;;;;;4.60;77.35;97629.28;123770;1102;64905;-78
2021/03/12 03:05:32;;;;;;;15.13;11.73;;;;;;;4.60;77.39;97634.55;123800;1102;64934;-80
2021/03/12 03:08:01;;;;;;;12.13;10.53;;;;;;;4.59;77.46;97639.95;123802;1101;64891;-79
2021/03/12 03:10:28;;;;;;;13.37;11.57;;;;;;;4.61;77.70;97644.19;123796;1102;64899;-80
2021/03/12 03:12:55;;;;;;;13.13;10.60;;;;;;;4.65;77.66;97657.17;123780;1102;64989;-81
2021/03/12 03:15:23;;;;;;;12.75;11.00;;;;;;;4.68;77.41;97665.73;123408;1102;65039;-79
2021/03/12 03:17:52;;;;;;;13.47;12.07;;;;;;;4.70;77.73;97653.29;123791;1102;65018;-79
2021/03/12 03:20:19;;;;;;;11.10;9.90;;;;;;;4.73;78.19;97652.25;123784;1102;64918;-78
2021/03/12 03:22:46;;;;;;;10.00;8.20;;;;;;;4.77;78.58;97646.67;123796;1102;64886;-79
2021/03/12 03:25:14;;;;;;;8.97;7.57;;;;;;;4.79;78.16;97647.43;123814;1102;64917;-79
2021/03/12 03:27:41;;;;;;;9.93;7.90;;;;;;;4.84;78.18;97645.34;123753;1102;65016;-79
2021/03/12 03:30:11;;;;;;;9.00;8.10;;;;;;;4.89;77.92;97654.73;123872;1102;65023;-79
2021/03/12 03:32:37;;;;;;;;;;;;;;;4.91;78.09;97658.12;123839;1102;64930;-79
2021/03/12 03:35:06;;;;;;;9.03;7.03;;;;;;;4.94;77.92;97647.36;123837;1102;64783;-78
2021/03/12 03:37:32;;;;;;;10.07;8.07;;;;;;;4.96;78.30;97648.95;123805;1101;64936;-78
2021/03/12 03:40:00;;;;;;;9.83;8.17;;;;;;;4.98;78.03;97654.98;123399;1103;64995;-79
2021/03/12 03:42:29;;;;;;;10.27;8.53;;;;;;;5.02;78.07;97666.18;123797;1102;65104;-79
2021/03/12 03:44:58;;;;;;;10.50;8.85;;;;;;;5.07;77.70;97674.65;123444;1103;64915;-79
2021/03/12 03:47:29;;;;;;;10.60;9.17;;;;;;;5.09;78.14;97680.69;123788;1102;64883;-80
2021/03/12 03:49:57;;;;;;;11.47;9.93;;;;;;;5.13;78.26;97679.52;123810;1102;64876;-77
2021/03/12 03:52:24;;;;;;;10.70;9.40;;;;;;;5.17;78.37;97675.73;123761;1101;64885;-80
2021/03/12 03:54:53;;;;;;;12.40;9.30;;;;;;;5.23;78.02;97675.32;123835;1102;65010;-77
2021/03/12 03:57:22;;;;;;;11.33;8.73;;;;;;;5.27;78.01;97675.98;123813;1102;64907;-78
2021/03/12 03:59:49;;;;;;;11.22;9.30;;;;;;;5.30;78.33;97672.30;123462;1102;66167;-79
2021/03/12 04:02:18;;;;;;;10.00;8.50;;;;;;;5.35;78.13;97676.31;123798;1101;64837;-77
2021/03/12 04:04:47;;;;;;;10.03;8.67;;;;;;;5.39;77.99;97685.71;123811;1102;65317;-80
2021/03/12 04:07:15;;;;;;;10.83;8.53;;;;;;;5.42;78.44;97688.14;123462;1102;65281;-80
2021/03/12 04:09:43;;;;;;;9.83;8.00;;;;;;;5.44;78.42;97685.41;123485;1102;64880;-78
2021/03/12 04:12:13;;;;;;;11.43;9.57;;;;;;;5.46;78.30;97702.02;123811;1101;64911;-79
2021/03/12 04:14:40;;;;;;;;;;;;;;;5.50;78.11;97699.07;123835;1102;64911;-78
2021/03/12 04:17:08;;;;;;;10.47;9.37;;;;;;;5.55;78.11;97709.30;123733;1102;64933;-79
2021/03/12 04:19:35;;;;;;;12.70;9.50;;;;;;;5.59;77.85;97694.95;123772;1102;65342;-79
2021/03/12 04:22:03;;;;;;;10.47;8.67;;;;;;;5.62;78.31;97704.47;123772;1101;64927;-80
2021/03/12 04:24:31;;;;;;;11.90;8.60;;;;;;;5.63;78.23;97704.34;123816;1102;64831;-79
2021/03/12 04:26:58;;;;;;;11.43;8.60;;;;;;;5.68;78.16;97702.24;123843;1102;64930;-78
2021/03/12 04:29:25;;;;;;;9.95;8.00;;;;;;;5.70;77.64;97710.92;123804;1102;64988;-80
2021/03/12 04:31:52;;;;;;;10.15;8.30;;;;;;;5.70;77.60;97702.15;123843;1102;64972;-80
2021/03/12 04:34:19;;;;;;;11.10;8.07;;;;;;;5.72;77.64;97710.83;123812;1102;64882;-79
2021/03/12 04:36:46;;;;;;;7.87;6.87;;;;;;;5.75;77.49;97709.78;123762;1102;64965;-78
2021/03/12 04:39:13;;;;;;;10.43;8.47;;;;;;;5.75;77.47;97702.69;123733;1102;64825;-78
2021/03/12 04:41:40;;;;;;;9.87;7.67;;;;;;;5.77;77.59;97703.44;123834;1101;65051;-78
2021/03/12 04:44:09;;;;;;;11.70;8.77;;;;;;;5.77;78.11;97707.88;123787;1102;64943;-78
2021/03/12 04:46:37;;;;;;;10.70;8.73;;;;;;;5.76;77.92;97696.44;123442;1102;64909;-79
2021/03/12 04:49:07;;;;;;;9.67;8.47;;;;;;;5.76;77.75;97690.31;123454;1102;64899;-79
2021/03/12 04:51:35;;;;;;;11.63;9.30;;;;;;;5.75;77.58;97688.62;123844;1101;64857;-80
2021/03/12 04:54:10;;;;;;;11.83;9.77;;;;;;;5.75;77.88;97694.76;123770;1102;64976;-79
2021/03/12 04:56:38;;;;;;;13.93;11.17;;;;;;;5.77;78.23;97686.73;123782;1102;64910;-79
2021/03/12 04:59:04;;;;;;;13.73;11.33;;;;;;;5.77;77.67;97686.73;123778;1102;65245;-79
2021/03/12 05:01:34;;;;;;;15.07;11.47;;;;;;;5.77;78.39;97697.31;123398;1102;64876;-79
2021/03/12 05:04:05;;;;;;;14.75;13.10;;;;;;;5.76;77.95;97708.81;123848;1102;64936;-78
2021/03/12 05:06:33;;;;;;;14.90;11.90;;;;;;;5.71;78.20;97720.56;123473;1102;65120;-79
2021/03/12 05:08:59;;;;;;;15.93;10.90;;;;;;;5.71;78.34;97722.33;123779;1101;65397;-79
2021/03/12 05:11:26;;;;;;;13.47;11.37;;;;;;;5.69;77.88;97735.67;123768;1102;64885;-78
2021/03/12 05:13:52;;;;;;;13.33;11.70;;;;;;;5.68;78.22;97728.67;123763;1102;64904;-80
2021/03/12 05:16:20;;;;;;;17.70;12.53;;;;;;;5.66;78.04;97722.67;123419;1102;64895;-79
2021/03/12 05:18:46;;;;;;;17.20;13.10;;;;;;;5.64;77.82;97737.78;123782;1102;64934;-79
2021/03/12 05:21:14;;;;;;;16.83;12.93;;;;;;;5.62;77.90;97742.31;123355;1105;64911;-79
2021/03/12 05:23:41;;;;;;;16.40;13.23;;;;;;;5.62;78.35;97737.02;123804;1102;64837;-79
2021/03/12 05:26:08;;;;;;;22.15;14.90;;;;;;;5.63;78.07;97740.51;123830;1102;64962;-79
2021/03/12 05:28:35;;;;;;;18.73;12.60;;;;;;;5.64;77.78;97744.87;123852;1102;64901;-79
2021/03/12 05:31:02;;;;;;;16.80;12.33;;;;;;;5.64;78.20;97764.20;123776;1102;64902;-80
2021/03/12 05:33:29;;;;;;;16.90;11.25;;;;;;;5.68;77.61;97749.82;123787;1102;65010;-79
2021/03/12 05:35:55;;;;;;;14.27;11.27;;;;;;;5.72;77.97;97753.13;123781;1102;65306;-77
2021/03/12 05:38:21;;;;;;;15.23;11.37;;;;;;;5.73;77.96;97755.64;123805;1102;64883;-78
2021/03/12 05:40:48;;;;;;;19.47;12.80;;;;;;;5.77;77.85;97773.97;123433;1102;64984;-78
2021/03/12 05:43:15;;;;;;;18.63;11.40;;;;;;;5.80;77.97;97779.89;123758;1102;64902;-79
2021/03/12 05:45:41;;;;;;;17.20;11.85;;;;;;;5.84;77.79;97784.00;123786;1102;64953;-78
2021/03/12 05:48:09;;;;;;;17.80;11.85;;;;;;;5.90;77.83;97783.61;123740;1102;64931;-78
2021/03/12 05:50:35;;;;;;;14.17;9.47;;;;;;;5.97;77.78;97786.70;123806;1102;64886;-78
2021/03/12 05:53:03;;;;;;;15.07;10.50;;;;;;;6.04;77.37;97787.15;123772;1102;64876;-78
2021/03/12 05:55:29;;;;;;;12.80;9.43;;;;;;;6.09;77.26;97785.88;123735;1102;65016;-79
2021/03/12 05:57:56;;;;;;;15.37;10.37;;;;;;;6.17;76.92;97787.16;123750;1102;64889;-78
2021/03/12 06:00:23;;;;;;;12.03;9.60;;;;;;;6.23;77.28;97786.73;123818;1101;64882;-79
2021/03/12 06:02:49;;;;;;;14.07;8.80;;;;;;;6.30;76.86;97802.09;123435;1102;64972;-78
2021/03/12 06:05:16;;;;;;;10.10;7.43;;;;;;;6.36;77.02;97804.30;123796;1102;64860;-79
2021/03/12 06:07:42;;;;;;;13.50;8.43;;;;;;;6.41;76.86;97803.15;123758;1102;65046;-79
2021/03/12 06:10:09;;;;;;;14.13;9.30;;;;;;;6.48;76.55;97804.43;123788;1102;65001;-79
2021/03/12 06:12:36;;;;;;;11.43;8.57;;;;;;;6.57;76.65;97811.71;123805;1102;64896;-79
2021/03/12 06:15:05;;;;;;;11.70;8.77;;;;;;;6.67;76.31;97815.41;123814;1102;64940;-77
2021/03/12 06:17:39;;;;;;;11.03;8.40;;;;;;;6.78;75.75;97799.61;123827;1101;64931;-79
2021/03/12 06:20:12;;;;;;;12.93;9.53;;;;;;;6.87;75.54;97803.41;123433;1102;65017;-80
2021/03/12 06:22:57;;;;;;;11.97;8.73;;;;;;;6.91;75.27;97809.34;123800;1102;64860;-78
2021/03/12 06:25:25;;;;;;;13.67;9.33;;;;;;;6.95;74.86;97814.32;123399;1105;64889;-79
2021/03/12 06:27:53;;;;;;;15.43;10.17;;;;;;;7.05;74.90;97817.14;123443;1102;64911;-79
2021/03/12 06:30:22;;;;;;;15.57;9.83;;;;;;;7.11;74.79;97829.97;123806;1102;64854;-79
2021/03/12 06:32:51;;;;;;;12.60;7.90;;;;;;;7.14;73.67;97831.55;123741;1102;64901;-79
2021/03/12 06:35:22;;;;;;;9.93;7.43;;;;;;;7.14;73.89;97850.94;123832;1102;65029;-79
2021/03/12 06:37:50;;;;;;;10.10;7.95;;;;;;;7.14;73.38;97871.30;123389;1105;64889;-79
2021/03/12 06:40:26;;;;;;;9.90;7.70;;;;;;;7.15;73.65;97875.63;123808;1102;64927;-80
2021/03/12 06:43:12;;;;;;;11.33;8.50;;;;;;;7.12;73.40;97875.84;123812;1102;64982;-79
2021/03/12 06:45:41;;;;;;;8.73;6.50;;;;;;;7.09;73.00;97871.61;123815;1102;65030;-80
2021/03/12 06:48:15;;;;;;;11.15;6.87;;;;;;;7.03;73.28;97883.49;123816;1102;64904;-77
2021/03/12 06:50:46;;;;;;;8.80;6.77;;;;;;;7.00;73.27;97890.79;123757;1102;64934;-80
2021/03/12 06:53:41;;;;;;;9.93;6.57;;;;;;;6.99;72.97;97875.86;123832;1102;64902;-79
2021/03/12 06:56:27;;;;;;;8.60;5.90;;;;;;;7.00;73.01;97875.77;123815;1102;64886;-79
2021/03/12 06:58:59;;;;;;;10.53;6.13;;;;;;;7.10;73.25;97881.24;123802;1102;65049;-79
2021/03/12 07:01:25;;;;;;;7.63;5.77;;;;;;;7.22;72.50;97879.55;123790;1102;65011;-79
2021/03/12 07:04:12;;;;;;;7.70;5.77;;;;;;;7.34;72.35;97881.30;123439;1102;64877;-79
2021/03/12 07:06:46;;;;;;;7.20;5.07;;;;;;;7.41;71.70;97898.46;123437;1102;65077;-79
2021/03/12 07:09:13;;;;;;;8.33;5.47;;;;;;;7.41;71.74;97903.77;123450;1103;64927;-79
2021/03/12 07:11:40;;;;;;;12.27;5.53;;;;;;;7.40;71.53;97899.43;123782;1102;65371;-78
2021/03/12 07:14:07;;;;;;;8.13;4.83;;;;;;;7.40;71.92;97888.83;123411;1102;64908;-80
2021/03/12 07:16:33;;;;;;;6.90;4.75;;;;;;;7.43;70.99;97899.20;123812;1101;64911;-79
2021/03/12 07:19:00;;;;;;;8.95;5.60;;;;;;;7.51;71.33;97900.47;123450;1102;64882;-78
2021/03/12 07:21:29;;;;;;;11.03;7.13;;;;;;;7.58;71.28;97907.00;123800;1102;64905;-79
2021/03/12 07:24:01;;;;;;;11.45;6.65;;;;;;;7.63;70.88;97907.52;123782;1102;65029;-79
2021/03/12 07:26:35;;;;;;;9.10;6.30;;;;;;;7.65;70.68;97926.82;123781;1102;64969;-79
2021/03/12 07:29:06;;;;;;;8.57;6.27;;;;;;;7.65;70.55;97930.31;123817;1102;64928;-80
2021/03/12 07:31:37;;;;;;;8.63;5.90;;;;;;;7.68;70.26;97937.20;123447;1102;64946;-78
2021/03/12 07:34:12;;;;;;;9.73;5.97;;;;;;;7.75;70.55;97932.31;123827;1102;64902;-80
2021/03/12 07:36:46;;;;;;;9.93;6.30;;;;;;;7.86;70.50;97919.95;123416;1105;65020;-79
2021/03/12 07:39:17;;;;;;;15.97;7.07;;;;;;;8.01;70.44;97931.26;123860;1102;65004;-79
2021/03/12 07:41:44;;;;;;;8.37;5.97;;;;;;;8.17;70.12;97932.78;123443;1102;64949;-79
2021/03/12 07:44:13;;;;;;;8.85;6.60;;;;;;;8.30;69.57;97942.37;123837;1102;64902;-79
2021/03/12 07:46:40;;;;;;;6.30;4.93;;;;;;;8.44;69.44;97935.20;123803;1102;64885;-80
2021/03/12 07:49:32;;;;;;;6.75;5.00;;;;;;;8.58;68.40;97940.31;123799;1102;64863;-79
2021/03/12 07:52:01;;;;;;;7.83;5.50;;;;;;;8.60;68.74;97938.39;123810;1102;65065;-80
2021/03/12 07:54:43;;;;;;;8.17;5.40;;;;;;;8.58;69.08;97932.34;123902;1102;64940;-79
2021/03/12 07:57:40;;;;;;;7.60;4.83;;;;;;;8.49;67.84;97930.41;123841;1102;64851;-79
2021/03/12 08:00:09;;;;;;;7.93;5.30;;;;;;;8.44;68.47;97929.90;123813;1102;64979;-79
2021/03/12 08:02:56;;;;;;;6.53;4.47;;;;;;;8.52;68.65;97940.78;123428;1102;65435;-80
2021/03/12 08:05:34;;;;;;;8.50;5.63;;;;;;;8.77;69.01;97947.75;123876;1101;64902;-80
2021/03/12 08:08:01;;;;;;;7.57;4.87;;;;;;;9.05;68.21;97945.61;123789;1102;64901;-80
2021/03/12 08:10:28;;;;;;;8.33;5.77;;;;;;;9.20;67.95;97949.74;123424;1105;64985;-79
2021/03/12 08:12:55;;;;;;;9.40;5.27;;;;;;;9.30;67.34;97956.03;123793;1102;64876;-79
2021/03/12 08:15:28;;;;;;;7.50;4.50;;;;;;;9.34;66.47;97948.66;123423;1102;64889;-80
2021/03/12 08:17:57;;;;;;;6.05;3.50;;;;;;;9.27;65.05;97958.06;123463;1102;65065;-78
2021/03/12 08:20:23;;;;;;;5.00;3.30;;;;;;;9.11;65.89;97964.61;123841;1102;65400;-79
2021/03/12 08:22:51;;;;;;;4.23;2.97;;;;;;;8.93;64.12;97974.00;123722;1102;65416;-78
2021/03/12 08:25:35;;;;;;;5.57;2.80;;;;;;;8.84;65.59;97990.63;123873;1102;64902;-79
2021/03/12 08:28:22;;;;;;;4.50;2.70;;;;;;;8.72;65.85;97985.28;123787;1102;64905;-78
2021/03/12 08:30:57;;;;;;;3.97;3.50;;;;;;;8.64;66.07;97984.18;123746;1102;65148;-79
2021/03/12 08:33:31;;;;;;;5.53;3.87;;;;;;;8.55;66.03;98001.63;123810;1102;64908;-79
2021/03/12 08:35:58;;;;;;;6.37;4.23;;;;;;;8.49;66.93;98008.24;123419;1102;64899;-79
2021/03/12 08:38:26;;;;;;;6.23;5.20;;;;;;;8.46;66.97;98004.98;123853;1102;64924;-80
2021/03/12 08:41:01;;;;;;;7.00;4.80;;;;;;;8.36;67.20;98021.54;123879;1102;65244;-80
2021/03/12 08:43:30;;;;;;;8.50;5.10;;;;;;;8.20;67.52;98018.32;123429;1102;64963;-80
2021/03/12 08:45:59;;;;;;;10.80;6.80;;;;;;;8.07;67.66;98022.83;123820;1102;64930;-80
2021/03/12 08:48:32;;;;;;;9.10;6.87;;;;;;;7.90;68.01;98034.66;123829;1102;64837;-80
2021/03/12 08:51:01;;;;;;;10.07;7.47;;;;;;;7.80;68.43;98044.23;123441;1102;64908;-79
2021/03/12 08:53:31;;;;;;;6.45;4.95;;;;;;;7.65;68.73;98043.50;123776;1102;64860;-80
2021/03/12 08:55:59;;;;;;;9.77;7.33;;;;;;;7.60;69.21;98037.66;123854;1102;64895;-80
2021/03/12 08:58:28;;;;;;;7.13;5.30;;;;;;;7.56;69.71;98050.30;123785;1102;64898;-81
2021/03/12 09:00:57;;;;;;;6.53;5.63;;;;;;;7.55;70.16;98061.00;123805;1102;64889;-79
2021/03/12 09:03:35;;;;;;;8.88;6.80;;;;;;;7.60;70.66;98061.53;123464;1105;64976;-79
2021/03/12 09:06:07;;;;;;;6.80;5.83;;;;;;;7.74;71.01;98072.04;123412;1102;64987;-79
2021/03/12 09:08:36;;;;;;;5.87;4.67;;;;;;;7.89;70.63;98073.58;123798;1102;65021;-79
2021/03/12 09:11:05;;;;;;;5.67;4.80;;;;;;;7.98;71.06;98082.72;123860;1102;64927;-78
2021/03/12 09:13:34;;;;;;;5.90;4.97;;;;;;;8.00;70.83;98083.44;123805;1102;64958;-80
2021/03/12 09:16:02;;;;;;;5.13;4.63;;;;;;;7.96;71.36;98078.47;123823;1101;64873;-79
2021/03/12 09:18:29;;;;;;;5.43;4.70;;;;;;;7.82;71.45;98090.03;123752;1102;64933;-79
2021/03/12 09:21:00;;;;;;;6.40;5.00;;;;;;;7.67;71.75;98098.13;123765;1102;64972;-78
2021/03/12 09:23:40;;;;;;;6.90;4.60;;;;;;;7.54;71.86;98091.13;123787;1102;65364;-79
2021/03/12 09:26:10;;;;;;;5.92;4.65;;;;;;;7.52;71.95;98095.69;123824;1102;64857;-79
2021/03/12 09:28:37;;;;;;;8.87;6.13;;;;;;;7.54;72.55;98099.09;123796;1102;64978;-79
2021/03/12 09:31:05;;;;;;;7.30;5.83;;;;;;;7.59;72.12;98100.46;123686;1102;64975;-80
2021/03/12 09:33:36;;;;;;;8.25;7.20;;;;;;;7.80;72.27;98100.77;123788;1102;64951;-79
2021/03/12 09:36:31;;;;;;;7.40;5.87;;;;;;;8.02;71.98;98093.95;123868;1102;64924;-79
2021/03/12 09:39:19;;;;;;;8.97;6.17;;;;;;;8.12;71.61;98106.45;123842;1102;64905;-78
2021/03/12 09:41:55;;;;;;;6.47;5.27;;;;;;;8.12;70.97;98119.72;123809;1102;64978;-78
2021/03/12 09:44:23;;;;;;;8.05;5.15;;;;;;;8.00;70.99;98123.23;123730;1102;64937;-79
2021/03/12 09:46:52;;;;;;;6.80;5.03;;;;;;;7.94;70.75;98125.48;123488;1102;64899;-79
2021/03/12 09:49:20;;;;;;;7.97;4.87;;;;;;;8.06;70.42;98111.36;123439;1102;64876;-79
2021/03/12 09:51:54;;;;;;;5.47;4.27;;;;;;;8.21;69.70;98112.06;123793;1102;65008;-79
2021/03/12 09:54:23;;;;;;;6.33;4.10;;;;;;;8.44;69.73;98113.94;123444;1102;64899;-79
2021/03/12 09:56:52;;;;;;;4.95;3.65;;;;;;;8.84;69.24;98129.62;123750;1102;65052;-79
2021/03/12 09:59:30;;;;;;;4.33;3.00;;;;;;;9.04;67.79;98122.84;123838;1102;64885;-77
2021/03/12 10:02:05;;;;;;;4.15;2.85;;;;;;;9.12;67.10;98120.45;123462;1102;64878;-77
2021/03/12 10:04:36;;;;;;;3.40;2.67;;;;;;;9.27;66.94;98115.80;123875;1102;64901;-78
2021/03/12 10:07:14;;;;;;;3.40;2.60;;;;;;;9.23;66.09;98123.14;123779;1102;64889;-77
2021/03/12 10:09:46;;;;;;;4.23;3.03;;;;;;;9.15;65.70;98116.72;123764;1102;65341;-77
2021/03/12 10:12:24;;;;;;;3.37;2.43;;;;;;;9.17;64.77;98128.93;123766;1102;65039;-77
2021/03/12 10:15:07;;;;;;;3.60;3.00;;;;;;;9.24;65.74;98131.95;123805;1102;65374;-77
2021/03/12 10:17:36;;;;;;;3.53;2.50;;;;;;;9.31;65.27;98127.04;123445;1102;65031;-77
2021/03/12 10:20:08;;;;;;;3.67;2.40;;;;;;;9.47;63.81;98129.38;123769;1102;64889;-77
2021/03/12 10:22:43;;;;;;;2.70;2.30;;;;;;;9.55;64.06;98119.84;123763;1102;64904;-77
2021/03/12 10:25:20;;;;;;;8.13;5.17;;;;;;;9.76;64.29;98125.31;123805;1102;64985;-77
2021/03/12 10:27:46;;;;;;;4.13;2.60;;;;;;;9.81;63.53;98132.95;123717;1102;64821;-78
2021/03/12 10:30:29;;;;;;;5.50;3.03;;;;;;;9.68;64.19;98109.11;123783;1101;64911;-77
2021/03/12 10:33:01;;;;;;;6.00;3.30;;;;;;;9.42;64.18;98124.41;123764;1102;65262;-77
2021/03/12 10:35:32;;;;;;;8.03;4.80;;;;;;;9.11;63.29;98133.84;123407;1102;64885;-77
2021/03/12 10:38:19;;;;;;;8.20;5.83;;;;;;;8.73;64.28;98141.03;123820;1102;64963;-77
2021/03/12 10:40:53;;;;;;;5.40;2.40;;;;;;;8.36;64.87;98177.33;123770;1102;65346;-78
2021/03/12 10:43:22;;;;;;;4.13;2.60;;;;;;;8.06;65.84;98185.66;123816;1102;64832;-79
2021/03/12 10:45:53;;;;;;;4.63;3.97;;;;;;;7.81;67.05;98199.76;123832;1102;64888;-77
2021/03/12 10:48:25;;;;;;;7.95;4.55;;;;;;;7.38;68.26;98189.41;123431;1102;64943;-77
2021/03/12 10:50:58;;;;;;;8.90;4.20;;;;;;;6.86;70.16;98204.27;123851;1101;65400;-78
2021/03/12 10:53:24;;;;;;;5.47;4.20;;;;;;;6.31;72.04;98234.23;123496;1102;64888;-78
2021/03/12 10:56:00;;;;;;;5.70;3.03;;;;;;;5.90;73.78;98225.20;123777;1102;64892;-77
2021/03/12 10:58:29;;;;;;;3.67;2.90;;;;;;;5.63;73.54;98218.91;123427;1102;64956;-78
2021/03/12 11:01:19;;;;;;;5.23;3.77;;;;;;;5.51;74.82;98233.71;123790;1102;64908;-78
2021/03/12 11:03:47;;;;;;;5.63;3.53;;;;;;;5.54;75.15;98232.69;123473;1102;65016;-78
2021/03/12 11:06:16;;;;;;;6.07;3.57;;;;;;;5.62;74.76;98223.35;123860;1101;64889;-77
2021/03/12 11:08:44;;;;;;;5.47;4.23;;;;;;;5.77;74.98;98224.24;123470;1102;64885;-78
2021/03/12 11:11:18;;;;;;;8.67;6.27;;;;;;;6.04;75.28;98232.33;123837;1102;64911;-77
2021/03/12 11:13:45;;;;;;;11.40;6.77;;;;;;;6.33;75.38;98227.89;123781;1102;64965;-77
2021/03/12 11:16:11;;;;;;;5.13;4.00;;;;;;;6.60;75.15;98229.77;123800;1102;64899;-78
2021/03/12 11:18:38;;;;;;;5.37;4.57;;;;;;;6.83;74.86;98228.31;123440;1102;64928;-77
2021/03/12 11:21:06;;;;;;;5.80;4.85;;;;;;;6.96;74.21;98229.22;123411;1103;64928;-77
2021/03/12 11:23:34;;;;;;;6.20;3.90;;;;;;;7.00;73.97;98224.56;123879;1101;65391;-77
2021/03/12 11:26:01;;;;;;;4.13;3.67;;;;;;;7.00;73.90;98216.61;123445;1102;64933;-78
2021/03/12 11:28:30;;;;;;;5.27;3.97;;;;;;;6.98;73.81;98226.48;123478;1101;64981;-78
2021/03/12 11:30:57;;;;;;;4.80;4.30;;;;;;;6.96;73.79;98226.57;123783;1102;64888;-77
2021/03/12 11:33:24;;;;;;;4.60;3.80;;;;;;;7.04;74.05;98224.27;123839;1100;64831;-78
2021/03/12 11:35:52;;;;;;;5.53;4.00;;;;;;;7.28;73.80;98226.27;123451;1102;64936;-78
2021/03/12 11:38:19;;;;;;;4.10;3.70;;;;;;;7.61;73.45;98217.88;123434;1102;64940;-78
2021/03/12 11:40:46;;;;;;;4.93;3.87;;;;;;;8.02;73.57;98216.84;123779;1102;65013;-79